sensor_id;sensor_type;location;lat;lon;timestamp;temperature;humidity
3312;DHT22;1668;49.648;8.570;2024-02-15T00:00:59;10.30;99.90
3312;DHT22;1668;49.648;8.570;2024-02-15T00:03:27;10.30;99.90
3312;DHT22;1668;49.648;8.570;2024-02-15T00:05:55;10.30;99.90
3312;DHT22;1668;49.648;8.570;2024-02-15T00:08:21;10.20;99.90
3312;DHT22;1668;49.648;8.570;2024-02-15T00:10:50;10.20;99.90
3312;DHT22;1668;49.648;8.570;2024-02-15T00:13:18;10.30;99.90
3312;DHT22;1668;49.648;8.570;2024-02-15T00:15:45;10.20;99.90
3312;DHT22;1668;49.648;8.570;2024-02-15T00:18:14;10.20;99.90
3312;DHT22;1668;49.648;8.570;2024-02-15T00:20:43;10.20;99.90
3312;DHT22;1668;49.648;8.570;2024-02-15T00:23:11;10.20;99.90
3312;DHT22;1668;49.648;8.570;2024-02-15T00:25:38;10.20;99.90
3312;DHT22;1668;49.648;8.570;2024-02-15T00:28:05;10.20;99.90
3312;DHT22;1668;49.648;8.570;2024-02-15T00:30:33;10.20;99.90
3312;DHT22;1668;49.648;8.570;2024-02-15T00:32:59;10.20;99.90
3312;DHT22;1668;49.648;8.570;2024-02-15T00:35:28;10.20;99.90
3312;DHT22;1668;49.648;8.570;2024-02-15T00:37:56;10.20;99.90
3312;DHT22;1668;49.648;8.570;2024-02-15T00:40:23;10.20;99.90
3312;DHT22;1668;49.648;8.570;2024-02-15T00:42:50;10.20;99.90
3312;DHT22;1668;49.648;8.570;2024-02-15T00:45:17;10.10;99.90
3312;DHT22;1668;49.648;8.570;2024-02-15T00:47:43;10.10;99.90
3312;DHT22;1668;49.648;8.570;2024-02-15T00:50:10;10.10;99.90
3312;DHT22;1668;49.648;8.570;2024-02-15T00:52:37;10.10;99.90
3312;DHT22;1668;49.648;8.570;2024-02-15T00:55:06;10.10;99.90
3312;DHT22;1668;49.648;8.570;2024-02-15T00:57:33;10.10;99.90
3312;DHT22;1668;49.648;8.570;2024-02-15T01:00:00;10.10;99.90
3312;DHT22;1668;49.648;8.570;2024-02-15T01:02:29;10.10;99.90
3312;DHT22;1668;49.648;8.570;2024-02-15T01:04:55;10.10;99.90
3312;DHT22;1668;49.648;8.570;2024-02-15T01:07:24;10.10;99.90
3312;DHT22;1668;49.648;8.570;2024-02-15T01:09:53;10.10;99.90
3312;DHT22;1668;49.648;8.570;2024-02-15T01:12:21;10.10;99.90
3312;DHT22;1668;49.648;8.570;2024-02-15T01:14:48;10.00;99.90
3312;DHT22;1668;49.648;8.570;2024-02-15T01:17:15;10.00;99.90
3312;DHT22;1668;49.648;8.570;2024-02-15T01:19:42;10.00;99.90
3312;DHT22;1668;49.648;8.570;2024-02-15T01:22:09;10.00;99.90
3312;DHT22;1668;49.648;8.570;2024-02-15T01:24:36;10.00;99.90
3312;DHT22;1668;49.648;8.570;2024-02-15T01:27:03;10.00;99.90
3312;DHT22;1668;49.648;8.570;2024-02-15T01:29:32;10.00;99.90
3312;DHT22;1668;49.648;8.570;2024-02-15T01:32:00;10.00;99.90
3312;DHT22;1668;49.648;8.570;2024-02-15T01:34:27;10.00;99.90
3312;DHT22;1668;49.648;8.570;2024-02-15T01:36:54;10.00;99.90
3312;DHT22;1668;49.648;8.570;2024-02-15T01:39:20;10.00;99.90
3312;DHT22;1668;49.648;8.570;2024-02-15T01:41:47;10.00;99.90
3312;DHT22;1668;49.648;8.570;2024-02-15T01:44:16;10.00;99.90
3312;DHT22;1668;49.648;8.570;2024-02-15T01:46:45;10.00;99.90
3312;DHT22;1668;49.648;8.570;2024-02-15T01:49:13;10.00;99.90
3312;DHT22;1668;49.648;8.570;2024-02-15T01:51:41;10.00;99.90
3312;DHT22;1668;49.648;8.570;2024-02-15T01:54:10;10.00;99.90
3312;DHT22;1668;49.648;8.570;2024-02-15T01:56:37;10.00;99.90
3312;DHT22;1668;49.648;8.570;2024-02-15T01:59:05;10.00;99.90
3312;DHT22;1668;49.648;8.570;2024-02-15T02:01:33;10.00;99.90
3312;DHT22;1668;49.648;8.570;2024-02-15T02:04:02;10.00;99.90
3312;DHT22;1668;49.648;8.570;2024-02-15T02:06:30;10.00;99.90
3312;DHT22;1668;49.648;8.570;2024-02-15T02:08:57;10.00;99.90
3312;DHT22;1668;49.648;8.570;2024-02-15T02:11:25;10.00;99.90
3312;DHT22;1668;49.648;8.570;2024-02-15T02:13:55;10.00;99.90
3312;DHT22;1668;49.648;8.570;2024-02-15T02:16:25;10.00;99.90
3312;DHT22;1668;49.648;8.570;2024-02-15T02:18:53;10.00;99.90
3312;DHT22;1668;49.648;8.570;2024-02-15T02:21:22;10.00;99.90
3312;DHT22;1668;49.648;8.570;2024-02-15T02:23:53;10.00;99.90
3312;DHT22;1668;49.648;8.570;2024-02-15T02:26:22;10.00;99.90
3312;DHT22;1668;49.648;8.570;2024-02-15T02:28:49;10.00;99.90
3312;DHT22;1668;49.648;8.570;2024-02-15T02:31:16;10.00;99.90
3312;DHT22;1668;49.648;8.570;2024-02-15T02:33:47;10.00;99.90
3312;DHT22;1668;49.648;8.570;2024-02-15T02:36:14;10.00;99.90
3312;DHT22;1668;49.648;8.570;2024-02-15T02:38:42;10.00;99.90
3312;DHT22;1668;49.648;8.570;2024-02-15T02:41:10;10.00;99.90
3312;DHT22;1668;49.648;8.570;2024-02-15T02:43:39;10.00;99.90
3312;DHT22;1668;49.648;8.570;2024-02-15T02:46:06;10.00;99.90
3312;DHT22;1668;49.648;8.570;2024-02-15T02:48:33;10.00;99.90
3312;DHT22;1668;49.648;8.570;2024-02-15T02:50:59;10.00;99.90
3312;DHT22;1668;49.648;8.570;2024-02-15T02:53:26;10.00;99.90
3312;DHT22;1668;49.648;8.570;2024-02-15T02:55:55;10.00;99.90
3312;DHT22;1668;49.648;8.570;2024-02-15T02:58:22;10.00;99.90
3312;DHT22;1668;49.648;8.570;2024-02-15T03:00:51;10.00;99.90
3312;DHT22;1668;49.648;8.570;2024-02-15T03:03:18;10.00;99.90
3312;DHT22;1668;49.648;8.570;2024-02-15T03:05:45;10.00;99.90
3312;DHT22;1668;49.648;8.570;2024-02-15T03:08:12;10.00;99.90
3312;DHT22;1668;49.648;8.570;2024-02-15T03:10:39;10.00;99.90
3312;DHT22;1668;49.648;8.570;2024-02-15T03:13:06;10.00;99.90
3312;DHT22;1668;49.648;8.570;2024-02-15T03:15:33;10.00;99.90
3312;DHT22;1668;49.648;8.570;2024-02-15T03:18:02;10.00;99.90
3312;DHT22;1668;49.648;8.570;2024-02-15T03:20:32;10.00;99.90
3312;DHT22;1668;49.648;8.570;2024-02-15T03:23:00;10.00;99.90
3312;DHT22;1668;49.648;8.570;2024-02-15T03:25:28;10.10;99.90
3312;DHT22;1668;49.648;8.570;2024-02-15T03:27:57;10.10;99.90
3312;DHT22;1668;49.648;8.570;2024-02-15T03:30:25;10.10;99.90
3312;DHT22;1668;49.648;8.570;2024-02-15T03:32:55;10.10;99.90
3312;DHT22;1668;49.648;8.570;2024-02-15T03:35:26;10.10;99.90
3312;DHT22;1668;49.648;8.570;2024-02-15T03:37:54;10.10;99.90
3312;DHT22;1668;49.648;8.570;2024-02-15T03:40:22;10.10;99.90
3312;DHT22;1668;49.648;8.570;2024-02-15T03:42:52;10.10;99.90
3312;DHT22;1668;49.648;8.570;2024-02-15T03:45:19;10.10;99.90
3312;DHT22;1668;49.648;8.570;2024-02-15T03:47:46;10.00;99.90
3312;DHT22;1668;49.648;8.570;2024-02-15T03:50:15;10.10;99.90
3312;DHT22;1668;49.648;8.570;2024-02-15T03:52:43;10.10;99.90
3312;DHT22;1668;49.648;8.570;2024-02-15T03:55:10;10.10;99.90
3312;DHT22;1668;49.648;8.570;2024-02-15T03:57:39;10.10;99.90
3312;DHT22;1668;49.648;8.570;2024-02-15T04:00:07;10.10;99.90
3312;DHT22;1668;49.648;8.570;2024-02-15T04:02:36;10.10;99.90
3312;DHT22;1668;49.648;8.570;2024-02-15T04:05:06;10.10;99.90
3312;DHT22;1668;49.648;8.570;2024-02-15T04:07:34;10.00;99.90
3312;DHT22;1668;49.648;8.570;2024-02-15T04:10:05;10.10;99.90
3312;DHT22;1668;49.648;8.570;2024-02-15T04:12:33;10.10;99.90
3312;DHT22;1668;49.648;8.570;2024-02-15T04:15:00;10.10;99.90
3312;DHT22;1668;49.648;8.570;2024-02-15T04:17:31;10.10;99.90
3312;DHT22;1668;49.648;8.570;2024-02-15T04:20:00;10.10;99.90
3312;DHT22;1668;49.648;8.570;2024-02-15T04:22:27;10.10;99.90
3312;DHT22;1668;49.648;8.570;2024-02-15T04:24:54;10.10;99.90
3312;DHT22;1668;49.648;8.570;2024-02-15T04:27:23;10.10;99.90
3312;DHT22;1668;49.648;8.570;2024-02-15T04:29:50;10.10;99.90
3312;DHT22;1668;49.648;8.570;2024-02-15T04:32:17;10.10;99.90
3312;DHT22;1668;49.648;8.570;2024-02-15T04:34:44;10.10;99.90
3312;DHT22;1668;49.648;8.570;2024-02-15T04:37:12;10.10;99.90
3312;DHT22;1668;49.648;8.570;2024-02-15T04:39:40;10.10;99.90
3312;DHT22;1668;49.648;8.570;2024-02-15T04:42:06;10.10;99.90
3312;DHT22;1668;49.648;8.570;2024-02-15T04:44:38;10.10;99.90
3312;DHT22;1668;49.648;8.570;2024-02-15T04:47:05;10.10;99.90
3312;DHT22;1668;49.648;8.570;2024-02-15T04:49:32;10.10;99.90
3312;DHT22;1668;49.648;8.570;2024-02-15T04:51:59;10.10;99.90
3312;DHT22;1668;49.648;8.570;2024-02-15T04:54:27;10.10;99.90
3312;DHT22;1668;49.648;8.570;2024-02-15T04:56:55;10.10;99.90
3312;DHT22;1668;49.648;8.570;2024-02-15T04:59:22;10.10;99.90
3312;DHT22;1668;49.648;8.570;2024-02-15T05:01:53;10.10;99.90
3312;DHT22;1668;49.648;8.570;2024-02-15T05:04:20;10.10;99.90
3312;DHT22;1668;49.648;8.570;2024-02-15T05:06:47;10.10;99.90
3312;DHT22;1668;49.648;8.570;2024-02-15T05:09:13;10.10;99.90
3312;DHT22;1668;49.648;8.570;2024-02-15T05:11:44;10.10;99.90
3312;DHT22;1668;49.648;8.570;2024-02-15T05:14:13;10.10;99.90
3312;DHT22;1668;49.648;8.570;2024-02-15T05:16:45;10.10;99.90
3312;DHT22;1668;49.648;8.570;2024-02-15T05:19:15;10.10;99.90
3312;DHT22;1668;49.648;8.570;2024-02-15T05:21:42;10.10;99.90
3312;DHT22;1668;49.648;8.570;2024-02-15T05:24:12;10.10;99.90
3312;DHT22;1668;49.648;8.570;2024-02-15T05:26:39;10.10;99.90
3312;DHT22;1668;49.648;8.570;2024-02-15T05:29:08;10.10;99.90
3312;DHT22;1668;49.648;8.570;2024-02-15T05:31:35;10.10;99.90
3312;DHT22;1668;49.648;8.570;2024-02-15T05:34:04;10.10;99.90
3312;DHT22;1668;49.648;8.570;2024-02-15T05:36:34;10.20;99.90
3312;DHT22;1668;49.648;8.570;2024-02-15T05:39:01;10.20;99.90
3312;DHT22;1668;49.648;8.570;2024-02-15T05:41:29;10.20;99.90
3312;DHT22;1668;49.648;8.570;2024-02-15T05:43:57;10.20;99.90
3312;DHT22;1668;49.648;8.570;2024-02-15T05:46:25;10.20;99.90
3312;DHT22;1668;49.648;8.570;2024-02-15T05:48:53;10.20;99.90
3312;DHT22;1668;49.648;8.570;2024-02-15T05:51:21;10.20;99.90
3312;DHT22;1668;49.648;8.570;2024-02-15T05:53:49;10.20;99.90
3312;DHT22;1668;49.648;8.570;2024-02-15T05:56:16;10.20;99.90
3312;DHT22;1668;49.648;8.570;2024-02-15T05:58:43;10.20;99.90
3312;DHT22;1668;49.648;8.570;2024-02-15T06:01:10;10.20;99.90
3312;DHT22;1668;49.648;8.570;2024-02-15T06:03:38;10.20;99.90
3312;DHT22;1668;49.648;8.570;2024-02-15T06:06:06;10.20;99.90
3312;DHT22;1668;49.648;8.570;2024-02-15T06:08:33;10.20;99.90
3312;DHT22;1668;49.648;8.570;2024-02-15T06:11:02;10.20;99.90
3312;DHT22;1668;49.648;8.570;2024-02-15T06:13:29;10.20;99.90
3312;DHT22;1668;49.648;8.570;2024-02-15T06:15:56;10.20;99.90
3312;DHT22;1668;49.648;8.570;2024-02-15T06:18:25;10.20;99.90
3312;DHT22;1668;49.648;8.570;2024-02-15T06:20:54;10.20;99.90
3312;DHT22;1668;49.648;8.570;2024-02-15T06:23:23;10.20;99.90
3312;DHT22;1668;49.648;8.570;2024-02-15T06:25:52;10.20;99.90
3312;DHT22;1668;49.648;8.570;2024-02-15T06:28:21;10.20;99.90
3312;DHT22;1668;49.648;8.570;2024-02-15T06:31:01;10.20;99.90
3312;DHT22;1668;49.648;8.570;2024-02-15T06:33:46;10.20;99.90
3312;DHT22;1668;49.648;8.570;2024-02-15T06:36:30;10.20;99.90
3312;DHT22;1668;49.648;8.570;2024-02-15T06:39:15;10.20;99.90
3312;DHT22;1668;49.648;8.570;2024-02-15T06:41:59;10.20;99.90
3312;DHT22;1668;49.648;8.570;2024-02-15T06:44:28;10.20;99.90
3312;DHT22;1668;49.648;8.570;2024-02-15T06:46:55;10.20;99.90
3312;DHT22;1668;49.648;8.570;2024-02-15T06:49:23;10.20;99.90
3312;DHT22;1668;49.648;8.570;2024-02-15T06:51:51;10.20;99.90
3312;DHT22;1668;49.648;8.570;2024-02-15T06:54:18;10.20;99.90
3312;DHT22;1668;49.648;8.570;2024-02-15T06:56:45;10.20;99.90
3312;DHT22;1668;49.648;8.570;2024-02-15T06:59:13;10.20;99.90
3312;DHT22;1668;49.648;8.570;2024-02-15T07:01:42;10.20;99.90
3312;DHT22;1668;49.648;8.570;2024-02-15T07:04:09;10.20;99.90
3312;DHT22;1668;49.648;8.570;2024-02-15T07:06:37;10.20;99.90
3312;DHT22;1668;49.648;8.570;2024-02-15T07:09:04;10.20;99.90
3312;DHT22;1668;49.648;8.570;2024-02-15T07:11:32;10.20;99.90
3312;DHT22;1668;49.648;8.570;2024-02-15T07:14:00;10.30;99.90
3312;DHT22;1668;49.648;8.570;2024-02-15T07:16:26;10.30;99.90
3312;DHT22;1668;49.648;8.570;2024-02-15T07:18:55;10.30;99.90
3312;DHT22;1668;49.648;8.570;2024-02-15T07:21:22;10.30;99.90
3312;DHT22;1668;49.648;8.570;2024-02-15T07:23:52;10.30;99.90
3312;DHT22;1668;49.648;8.570;2024-02-15T07:26:20;10.30;99.90
3312;DHT22;1668;49.648;8.570;2024-02-15T07:28:50;10.30;99.90
3312;DHT22;1668;49.648;8.570;2024-02-15T07:31:18;10.30;99.90
3312;DHT22;1668;49.648;8.570;2024-02-15T07:33:47;10.40;99.90
3312;DHT22;1668;49.648;8.570;2024-02-15T07:36:18;10.40;99.90
3312;DHT22;1668;49.648;8.570;2024-02-15T07:38:45;10.40;99.90
3312;DHT22;1668;49.648;8.570;2024-02-15T07:41:14;10.40;99.90
3312;DHT22;1668;49.648;8.570;2024-02-15T07:43:40;10.40;99.90
3312;DHT22;1668;49.648;8.570;2024-02-15T07:46:12;10.40;99.90
3312;DHT22;1668;49.648;8.570;2024-02-15T07:48:40;10.50;99.90
3312;DHT22;1668;49.648;8.570;2024-02-15T07:51:11;10.50;99.90
3312;DHT22;1668;49.648;8.570;2024-02-15T07:53:39;10.50;99.90
3312;DHT22;1668;49.648;8.570;2024-02-15T07:56:08;10.50;99.90
3312;DHT22;1668;49.648;8.570;2024-02-15T07:58:38;10.60;99.90
3312;DHT22;1668;49.648;8.570;2024-02-15T08:01:06;10.60;99.90
3312;DHT22;1668;49.648;8.570;2024-02-15T08:03:33;10.60;99.90
3312;DHT22;1668;49.648;8.570;2024-02-15T08:06:01;10.60;99.90
3312;DHT22;1668;49.648;8.570;2024-02-15T08:08:32;10.60;99.90
3312;DHT22;1668;49.648;8.570;2024-02-15T08:11:02;10.60;99.90
3312;DHT22;1668;49.648;8.570;2024-02-15T08:13:29;10.70;99.90
3312;DHT22;1668;49.648;8.570;2024-02-15T08:15:56;10.70;99.90
3312;DHT22;1668;49.648;8.570;2024-02-15T08:18:23;10.70;99.90
3312;DHT22;1668;49.648;8.570;2024-02-15T08:20:51;10.70;99.90
3312;DHT22;1668;49.648;8.570;2024-02-15T08:23:18;10.70;99.90
3312;DHT22;1668;49.648;8.570;2024-02-15T08:25:44;10.70;99.90
3312;DHT22;1668;49.648;8.570;2024-02-15T08:28:13;10.80;99.90
3312;DHT22;1668;49.648;8.570;2024-02-15T08:30:40;10.80;99.90
3312;DHT22;1668;49.648;8.570;2024-02-15T08:33:07;10.80;99.90
3312;DHT22;1668;49.648;8.570;2024-02-15T08:35:36;10.80;99.90
3312;DHT22;1668;49.648;8.570;2024-02-15T08:38:05;10.80;99.90
3312;DHT22;1668;49.648;8.570;2024-02-15T08:40:32;10.90;99.90
3312;DHT22;1668;49.648;8.570;2024-02-15T08:43:00;10.90;99.90
3312;DHT22;1668;49.648;8.570;2024-02-15T08:45:29;10.90;99.90
3312;DHT22;1668;49.648;8.570;2024-02-15T08:47:56;10.90;99.90
3312;DHT22;1668;49.648;8.570;2024-02-15T08:50:23;11.00;99.90
3312;DHT22;1668;49.648;8.570;2024-02-15T08:52:50;11.00;99.90
3312;DHT22;1668;49.648;8.570;2024-02-15T08:55:17;11.00;99.90
3312;DHT22;1668;49.648;8.570;2024-02-15T08:57:46;11.10;99.90
3312;DHT22;1668;49.648;8.570;2024-02-15T09:00:13;11.10;99.90
3312;DHT22;1668;49.648;8.570;2024-02-15T09:06:05;11.20;99.90
3312;DHT22;1668;49.648;8.570;2024-02-15T09:08:33;11.20;99.90
3312;DHT22;1668;49.648;8.570;2024-02-15T09:11:00;11.30;99.90
3312;DHT22;1668;49.648;8.570;2024-02-15T09:13:26;11.30;99.90
3312;DHT22;1668;49.648;8.570;2024-02-15T09:15:53;11.40;99.90
3312;DHT22;1668;49.648;8.570;2024-02-15T09:18:20;11.40;99.90
3312;DHT22;1668;49.648;8.570;2024-02-15T09:20:48;11.50;99.90
3312;DHT22;1668;49.648;8.570;2024-02-15T09:23:22;11.50;99.90
3312;DHT22;1668;49.648;8.570;2024-02-15T09:25:49;11.60;99.90
3312;DHT22;1668;49.648;8.570;2024-02-15T09:28:17;11.60;99.90
3312;DHT22;1668;49.648;8.570;2024-02-15T09:30:48;11.60;99.90
3312;DHT22;1668;49.648;8.570;2024-02-15T09:33:18;11.70;99.90
3312;DHT22;1668;49.648;8.570;2024-02-15T09:35:44;11.70;99.90
3312;DHT22;1668;49.648;8.570;2024-02-15T09:38:12;11.80;99.90
3312;DHT22;1668;49.648;8.570;2024-02-15T09:40:48;11.90;99.90
3312;DHT22;1668;49.648;8.570;2024-02-15T09:43:16;11.90;99.90
3312;DHT22;1668;49.648;8.570;2024-02-15T09:45:43;12.00;90.20
3312;DHT22;1668;49.648;8.570;2024-02-15T09:48:10;12.10;59.30
3312;DHT22;1668;49.648;8.570;2024-02-15T09:50:39;12.10;12.50
3312;DHT22;1668;49.648;8.570;2024-02-15T09:53:08;12.20;50.80
3312;DHT22;1668;49.648;8.570;2024-02-15T09:55:35;12.20;23.90
3312;DHT22;1668;49.648;8.570;2024-02-15T09:58:04;12.30;25.50
3312;DHT22;1668;49.648;8.570;2024-02-15T10:00:31;12.30;1.00
3312;DHT22;1668;49.648;8.570;2024-02-15T10:03:00;12.40;1.00
3312;DHT22;1668;49.648;8.570;2024-02-15T10:05:29;12.40;1.00
3312;DHT22;1668;49.648;8.570;2024-02-15T10:07:56;12.50;1.00
3312;DHT22;1668;49.648;8.570;2024-02-15T10:10:27;12.50;1.00
3312;DHT22;1668;49.648;8.570;2024-02-15T10:12:55;12.60;1.00
3312;DHT22;1668;49.648;8.570;2024-02-15T10:15:31;12.60;1.00
3312;DHT22;1668;49.648;8.570;2024-02-15T10:18:00;12.70;1.00
3312;DHT22;1668;49.648;8.570;2024-02-15T10:20:27;12.80;1.00
3312;DHT22;1668;49.648;8.570;2024-02-15T10:23:09;12.80;1.00
3312;DHT22;1668;49.648;8.570;2024-02-15T10:25:36;12.80;1.00
3312;DHT22;1668;49.648;8.570;2024-02-15T10:28:04;12.90;1.00
3312;DHT22;1668;49.648;8.570;2024-02-15T10:30:34;13.00;1.00
3312;DHT22;1668;49.648;8.570;2024-02-15T10:33:01;13.00;1.00
3312;DHT22;1668;49.648;8.570;2024-02-15T10:35:28;13.00;99.90
3312;DHT22;1668;49.648;8.570;2024-02-15T10:38:05;13.10;99.90
3312;DHT22;1668;49.648;8.570;2024-02-15T10:40:33;13.10;99.90
3312;DHT22;1668;49.648;8.570;2024-02-15T10:43:02;13.10;99.90
3312;DHT22;1668;49.648;8.570;2024-02-15T10:45:31;13.20;1.00
3312;DHT22;1668;49.648;8.570;2024-02-15T10:47:59;13.20;21.20
3312;DHT22;1668;49.648;8.570;2024-02-15T10:50:26;13.20;12.40
3312;DHT22;1668;49.648;8.570;2024-02-15T10:52:55;13.20;1.00
3312;DHT22;1668;49.648;8.570;2024-02-15T10:55:31;13.20;1.00
3312;DHT22;1668;49.648;8.570;2024-02-15T10:58:01;13.30;1.00
3312;DHT22;1668;49.648;8.570;2024-02-15T11:00:32;13.30;28.50
3312;DHT22;1668;49.648;8.570;2024-02-15T11:03:04;13.40;1.00
3312;DHT22;1668;49.648;8.570;2024-02-15T11:05:33;13.40;1.00
3312;DHT22;1668;49.648;8.570;2024-02-15T11:08:03;13.50;1.00
3312;DHT22;1668;49.648;8.570;2024-02-15T11:10:32;13.50;1.00
3312;DHT22;1668;49.648;8.570;2024-02-15T11:13:00;13.60;1.00
3312;DHT22;1668;49.648;8.570;2024-02-15T11:18:51;13.70;99.90
3312;DHT22;1668;49.648;8.570;2024-02-15T11:21:54;13.90;1.00
3312;DHT22;1668;49.648;8.570;2024-02-15T11:24:25;14.00;1.00
3312;DHT22;1668;49.648;8.570;2024-02-15T11:26:57;14.10;99.90
3312;DHT22;1668;49.648;8.570;2024-02-15T11:34:45;14.30;15.40
3312;DHT22;1668;49.648;8.570;2024-02-15T11:37:49;14.30;6.70
3312;DHT22;1668;49.648;8.570;2024-02-15T11:40:19;14.40;1.00
3312;DHT22;1668;49.648;8.570;2024-02-15T11:42:48;14.40;1.00
3312;DHT22;1668;49.648;8.570;2024-02-15T11:45:16;14.50;1.00
3312;DHT22;1668;49.648;8.570;2024-02-15T11:47:47;14.50;1.00
3312;DHT22;1668;49.648;8.570;2024-02-15T11:50:17;14.50;1.00
3312;DHT22;1668;49.648;8.570;2024-02-15T11:52:46;14.60;99.90
3312;DHT22;1668;49.648;8.570;2024-02-15T11:55:17;14.70;1.00
3312;DHT22;1668;49.648;8.570;2024-02-15T11:57:54;14.70;99.90
3312;DHT22;1668;49.648;8.570;2024-02-15T12:00:28;14.70;1.00
3312;DHT22;1668;49.648;8.570;2024-02-15T12:03:14;14.80;99.90
3312;DHT22;1668;49.648;8.570;2024-02-15T12:06:00;14.80;99.90
3312;DHT22;1668;49.648;8.570;2024-02-15T12:08:45;14.80;1.00
3312;DHT22;1668;49.648;8.570;2024-02-15T12:11:30;14.80;1.00
3312;DHT22;1668;49.648;8.570;2024-02-15T12:14:14;14.90;99.90
3312;DHT22;1668;49.648;8.570;2024-02-15T12:17:03;14.90;99.90
3312;DHT22;1668;49.648;8.570;2024-02-15T12:19:49;15.00;99.90
3312;DHT22;1668;49.648;8.570;2024-02-15T12:22:20;15.00;72.70
3312;DHT22;1668;49.648;8.570;2024-02-15T12:24:58;15.00;99.90
3312;DHT22;1668;49.648;8.570;2024-02-15T12:27:25;15.10;99.90
3312;DHT22;1668;49.648;8.570;2024-02-15T12:29:54;15.10;99.90
3312;DHT22;1668;49.648;8.570;2024-02-15T12:32:21;15.10;99.90
3312;DHT22;1668;49.648;8.570;2024-02-15T12:34:48;15.20;1.00
3312;DHT22;1668;49.648;8.570;2024-02-15T12:37:19;15.20;1.00
3312;DHT22;1668;49.648;8.570;2024-02-15T12:39:47;15.20;99.90
3312;DHT22;1668;49.648;8.570;2024-02-15T12:42:14;15.20;1.00
3312;DHT22;1668;49.648;8.570;2024-02-15T12:44:46;15.20;99.90
3312;DHT22;1668;49.648;8.570;2024-02-15T12:47:22;15.20;99.90
3312;DHT22;1668;49.648;8.570;2024-02-15T12:49:50;15.20;99.90
3312;DHT22;1668;49.648;8.570;2024-02-15T12:52:35;15.10;99.90
3312;DHT22;1668;49.648;8.570;2024-02-15T12:55:17;15.10;99.90
3312;DHT22;1668;49.648;8.570;2024-02-15T12:57:46;15.20;1.00
3312;DHT22;1668;49.648;8.570;2024-02-15T13:00:17;15.10;99.90
3312;DHT22;1668;49.648;8.570;2024-02-15T13:02:46;15.10;99.90
3312;DHT22;1668;49.648;8.570;2024-02-15T13:05:15;15.10;99.90
3312;DHT22;1668;49.648;8.570;2024-02-15T13:07:46;15.10;99.90
3312;DHT22;1668;49.648;8.570;2024-02-15T13:10:13;15.10;99.90
3312;DHT22;1668;49.648;8.570;2024-02-15T13:12:41;15.20;99.90
3312;DHT22;1668;49.648;8.570;2024-02-15T13:15:10;15.10;99.90
3312;DHT22;1668;49.648;8.570;2024-02-15T13:17:42;15.20;3.70
3312;DHT22;1668;49.648;8.570;2024-02-15T13:20:10;15.20;32.10
3312;DHT22;1668;49.648;8.570;2024-02-15T13:22:39;15.10;1.00
3312;DHT22;1668;49.648;8.570;2024-02-15T13:25:08;15.10;1.00
3312;DHT22;1668;49.648;8.570;2024-02-15T13:27:35;15.10;89.80
3312;DHT22;1668;49.648;8.570;2024-02-15T13:30:04;15.10;1.00
3312;DHT22;1668;49.648;8.570;2024-02-15T13:32:34;15.10;1.00
3312;DHT22;1668;49.648;8.570;2024-02-15T13:35:02;15.10;1.00
3312;DHT22;1668;49.648;8.570;2024-02-15T13:37:39;15.10;1.00
3312;DHT22;1668;49.648;8.570;2024-02-15T13:40:10;15.10;1.00
3312;DHT22;1668;49.648;8.570;2024-02-15T13:42:41;15.10;1.00
3312;DHT22;1668;49.648;8.570;2024-02-15T13:45:12;15.10;1.00
3312;DHT22;1668;49.648;8.570;2024-02-15T13:47:41;15.10;1.00
3312;DHT22;1668;49.648;8.570;2024-02-15T13:50:10;15.10;1.00
3312;DHT22;1668;49.648;8.570;2024-02-15T13:52:40;15.10;1.00
3312;DHT22;1668;49.648;8.570;2024-02-15T13:55:11;15.10;1.00
3312;DHT22;1668;49.648;8.570;2024-02-15T13:57:39;15.10;1.00
3312;DHT22;1668;49.648;8.570;2024-02-15T14:00:07;15.10;1.00
3312;DHT22;1668;49.648;8.570;2024-02-15T14:02:39;15.10;99.90
3312;DHT22;1668;49.648;8.570;2024-02-15T14:05:06;15.10;1.00
3312;DHT22;1668;49.648;8.570;2024-02-15T14:07:34;15.10;1.00
3312;DHT22;1668;49.648;8.570;2024-02-15T14:10:01;15.10;1.00
3312;DHT22;1668;49.648;8.570;2024-02-15T14:12:30;15.10;1.00
3312;DHT22;1668;49.648;8.570;2024-02-15T14:14:57;15.10;1.00
3312;DHT22;1668;49.648;8.570;2024-02-15T14:17:24;15.10;1.00
3312;DHT22;1668;49.648;8.570;2024-02-15T14:19:51;15.10;1.00
3312;DHT22;1668;49.648;8.570;2024-02-15T14:22:18;15.10;22.40
3312;DHT22;1668;49.648;8.570;2024-02-15T14:24:46;15.10;99.90
3312;DHT22;1668;49.648;8.570;2024-02-15T14:27:13;15.10;99.90
3312;DHT22;1668;49.648;8.570;2024-02-15T14:29:41;15.10;99.90
3312;DHT22;1668;49.648;8.570;2024-02-15T14:32:31;15.10;99.90
3312;DHT22;1668;49.648;8.570;2024-02-15T14:35:15;15.10;99.90
3312;DHT22;1668;49.648;8.570;2024-02-15T14:37:42;15.10;1.00
3312;DHT22;1668;49.648;8.570;2024-02-15T14:40:12;15.10;1.00
3312;DHT22;1668;49.648;8.570;2024-02-15T14:42:40;15.00;70.10
3312;DHT22;1668;49.648;8.570;2024-02-15T14:45:10;15.10;1.00
3312;DHT22;1668;49.648;8.570;2024-02-15T14:47:38;15.00;99.90
3312;DHT22;1668;49.648;8.570;2024-02-15T14:50:06;15.00;99.90
3312;DHT22;1668;49.648;8.570;2024-02-15T14:52:34;15.00;1.00
3312;DHT22;1668;49.648;8.570;2024-02-15T14:55:02;15.00;1.00
3312;DHT22;1668;49.648;8.570;2024-02-15T14:57:30;15.00;1.00
3312;DHT22;1668;49.648;8.570;2024-02-15T14:59:58;15.00;99.90
3312;DHT22;1668;49.648;8.570;2024-02-15T15:02:26;15.00;99.90
3312;DHT22;1668;49.648;8.570;2024-02-15T15:04:53;15.00;99.90
3312;DHT22;1668;49.648;8.570;2024-02-15T15:07:39;15.00;1.00
3312;DHT22;1668;49.648;8.570;2024-02-15T15:10:24;15.00;1.00
3312;DHT22;1668;49.648;8.570;2024-02-15T15:13:08;14.90;99.90
3312;DHT22;1668;49.648;8.570;2024-02-15T15:15:36;14.90;56.60
3312;DHT22;1668;49.648;8.570;2024-02-15T15:18:05;14.90;99.90
3312;DHT22;1668;49.648;8.570;2024-02-15T15:20:33;14.90;1.00
3312;DHT22;1668;49.648;8.570;2024-02-15T15:23:00;14.80;99.90
3312;DHT22;1668;49.648;8.570;2024-02-15T15:25:27;14.80;99.90
3312;DHT22;1668;49.648;8.570;2024-02-15T15:27:54;14.80;99.90
3312;DHT22;1668;49.648;8.570;2024-02-15T15:30:21;14.80;99.90
3312;DHT22;1668;49.648;8.570;2024-02-15T15:32:48;14.80;99.90
3312;DHT22;1668;49.648;8.570;2024-02-15T15:35:16;14.80;99.90
3312;DHT22;1668;49.648;8.570;2024-02-15T15:37:44;14.80;99.90
3312;DHT22;1668;49.648;8.570;2024-02-15T15:40:11;14.70;1.00
3312;DHT22;1668;49.648;8.570;2024-02-15T15:42:39;14.70;1.00
3312;DHT22;1668;49.648;8.570;2024-02-15T15:45:07;14.70;1.00
3312;DHT22;1668;49.648;8.570;2024-02-15T15:47:34;14.70;65.70
3312;DHT22;1668;49.648;8.570;2024-02-15T15:50:01;14.60;1.00
3312;DHT22;1668;49.648;8.570;2024-02-15T15:52:33;14.60;99.90
3312;DHT22;1668;49.648;8.570;2024-02-15T15:55:00;14.60;1.00
3312;DHT22;1668;49.648;8.570;2024-02-15T15:57:27;14.60;1.00
3312;DHT22;1668;49.648;8.570;2024-02-15T15:59:53;14.50;1.00
3312;DHT22;1668;49.648;8.570;2024-02-15T16:02:20;14.50;1.00
3312;DHT22;1668;49.648;8.570;2024-02-15T16:04:48;14.50;1.00
3312;DHT22;1668;49.648;8.570;2024-02-15T16:07:15;14.50;1.00
3312;DHT22;1668;49.648;8.570;2024-02-15T16:09:43;14.40;1.00
3312;DHT22;1668;49.648;8.570;2024-02-15T16:12:11;14.40;1.00
3312;DHT22;1668;49.648;8.570;2024-02-15T16:14:39;14.40;1.00
3312;DHT22;1668;49.648;8.570;2024-02-15T16:17:06;14.40;1.00
3312;DHT22;1668;49.648;8.570;2024-02-15T16:19:34;14.30;1.00
3312;DHT22;1668;49.648;8.570;2024-02-15T16:22:00;14.30;1.00
3312;DHT22;1668;49.648;8.570;2024-02-15T16:24:28;14.30;99.90
3312;DHT22;1668;49.648;8.570;2024-02-15T16:26:56;14.30;79.30
3312;DHT22;1668;49.648;8.570;2024-02-15T16:29:23;14.20;99.90